createdAt,value
2023-05-15T00:00:32.541Z,5.60
2023-05-15T00:04:55.610Z,4.15
2023-05-15T00:09:02.959Z,4.65
2023-05-15T00:13:06.317Z,5.47
2023-05-15T00:17:10.328Z,4.57
2023-05-15T00:21:13.396Z,5.10
2023-05-15T00:25:19.758Z,4.65
2023-05-15T00:29:22.747Z,4.28
2023-05-15T00:33:25.027Z,5.35
2023-05-15T00:41:33.617Z,4.40
2023-05-15T00:45:37.570Z,4.70
2023-05-15T00:49:41.233Z,4.38
2023-05-15T00:53:44.630Z,4.50
2023-05-15T00:57:50.544Z,4.80
2023-05-15T01:01:53.815Z,4.40
2023-05-15T01:05:56.949Z,4.68
2023-05-15T01:10:01.309Z,4.45
2023-05-15T01:14:10.102Z,4.22
2023-05-15T01:18:13.254Z,4.95
2023-05-15T01:22:48.415Z,5.20
2023-05-15T01:27:14.588Z,4.70
2023-05-15T01:31:24.045Z,4.43
2023-05-15T01:35:40.360Z,4.20
2023-05-15T01:39:46.531Z,5.15
2023-05-15T01:43:58.036Z,4.78
2023-05-15T01:48:03.499Z,4.40
2023-05-15T01:52:12.506Z,4.63
2023-05-15T01:56:16.729Z,4.10
2023-05-15T02:00:22.081Z,4.70
2023-05-15T02:04:29.078Z,5.32
2023-05-15T02:08:33.349Z,5.18
2023-05-15T02:12:36.798Z,5.10
2023-05-15T02:16:41.335Z,4.07
2023-05-15T02:20:44.538Z,4.72
2023-05-15T02:24:47.776Z,4.38
2023-05-15T02:28:59.628Z,4.43
2023-05-15T02:33:14.033Z,5.07
2023-05-15T02:37:21.274Z,5.13
2023-05-15T02:41:25.220Z,4.68
2023-05-15T02:45:28.621Z,5.53
2023-05-15T02:49:32.967Z,4.47
2023-05-15T02:53:41.177Z,5.38
2023-05-15T02:57:43.984Z,4.40
2023-05-15T03:01:47.919Z,4.38
2023-05-15T03:05:57.108Z,5.05
2023-05-15T03:10:00.232Z,5.20
2023-05-15T03:14:03.607Z,4.97
2023-05-15T03:18:06.827Z,5.10
2023-05-15T03:22:11.433Z,4.32
2023-05-15T03:26:14.689Z,5.32
2023-05-15T03:30:17.462Z,4.45
2023-05-15T03:38:25.029Z,4.40
2023-05-15T03:42:28.584Z,5.00
2023-05-15T03:46:31.675Z,4.50
2023-05-15T03:50:34.837Z,4.78
2023-05-15T03:54:39.318Z,4.57
2023-05-15T03:58:42.803Z,5.53
2023-05-15T04:02:46.330Z,5.03
2023-05-15T04:06:49.588Z,5.43
2023-05-15T04:10:54.735Z,5.57
2023-05-15T04:14:58.080Z,5.53
2023-05-15T04:19:01.192Z,5.30
2023-05-15T04:23:05.968Z,6.15
2023-05-15T04:27:10.345Z,5.00
2023-05-15T04:31:13.453Z,5.95
2023-05-15T04:35:16.571Z,5.47
2023-05-15T04:39:21.800Z,6.13
2023-05-15T04:43:27.850Z,6.57
2023-05-15T04:47:30.791Z,6.53
2023-05-15T04:51:33.721Z,6.55
2023-05-15T04:55:36.952Z,6.88
2023-05-15T04:59:41.289Z,6.72
2023-05-15T05:03:44.586Z,6.97
2023-05-15T05:07:47.563Z,6.97
2023-05-15T05:11:55.098Z,6.90
2023-05-15T05:16:02.070Z,6.75
2023-05-15T05:20:11.919Z,7.00
2023-05-15T05:24:15.828Z,7.22
2023-05-15T05:28:24.566Z,7.63
2023-05-15T05:32:28.845Z,6.63
2023-05-15T05:36:31.949Z,6.82
2023-05-15T05:40:35.028Z,7.38
2023-05-15T05:44:39.115Z,7.28
2023-05-15T05:48:46.193Z,7.25
2023-05-15T05:52:49.253Z,7.78
2023-05-15T05:56:52.396Z,7.85
2023-05-15T06:00:55.996Z,8.45
2023-05-15T06:05:00.558Z,7.70
2023-05-15T06:09:04.284Z,8.20
2023-05-15T06:13:07.054Z,8.35
2023-05-15T06:17:10.013Z,8.48
2023-05-15T06:21:14.392Z,8.13
2023-05-15T06:25:18.585Z,8.18
2023-05-15T06:29:21.610Z,8.35
2023-05-15T06:33:24.765Z,8.90
2023-05-15T06:37:29.492Z,8.07
2023-05-15T06:41:32.425Z,7.53
2023-05-15T06:49:42.522Z,7.25
2023-05-15T06:53:47.724Z,7.72
2023-05-15T06:57:50.781Z,8.32
2023-05-15T07:01:54.003Z,7.70
2023-05-15T07:05:57.469Z,7.55
2023-05-15T07:10:01.784Z,7.45
2023-05-15T07:14:05.248Z,8.73
2023-05-15T07:18:08.615Z,8.80
2023-05-15T07:22:11.681Z,7.93
2023-05-15T07:26:23.665Z,7.63
2023-05-15T07:30:34.716Z,8.05
2023-05-15T07:34:37.798Z,8.35
2023-05-15T07:38:40.885Z,8.63
2023-05-15T07:42:45.804Z,7.97
2023-05-15T07:46:48.931Z,7.63
2023-05-15T07:50:52.556Z,8.68
2023-05-15T07:54:55.754Z,8.77
2023-05-15T07:59:00.184Z,7.53
2023-05-15T08:03:04.920Z,9.07
2023-05-15T08:07:11.586Z,7.78
2023-05-15T08:11:19.732Z,8.20
2023-05-15T08:15:24.903Z,7.85
2023-05-15T08:19:28.238Z,8.52
2023-05-15T08:23:31.466Z,9.15
2023-05-15T08:31:37.909Z,9.45
2023-05-15T08:35:40.957Z,9.38
2023-05-15T08:39:43.843Z,8.80
2023-05-15T08:43:48.030Z,9.90
2023-05-15T08:47:52.701Z,10.30
2023-05-15T08:51:56.809Z,10.25
2023-05-15T08:55:59.768Z,10.80
2023-05-15T09:00:03.002Z,9.02
2023-05-15T09:08:11.583Z,10.80
2023-05-15T09:12:16.969Z,9.98
2023-05-15T09:16:21.358Z,10.60
2023-05-15T09:20:33.659Z,9.88
2023-05-15T09:24:40.060Z,10.50
2023-05-15T09:28:42.899Z,11.50
2023-05-15T09:32:46.397Z,11.18
2023-05-15T09:36:50.982Z,9.98
2023-05-15T09:41:03.183Z,10.30
2023-05-15T09:45:07.376Z,10.40
2023-05-15T09:49:11.360Z,10.20
2023-05-15T09:57:24.505Z,10.23
2023-05-15T10:01:28.315Z,11.23
2023-05-15T10:05:42.476Z,11.23
2023-05-15T10:09:47.835Z,11.05
2023-05-15T10:13:50.966Z,11.90
2023-05-15T10:17:56.350Z,10.82
2023-05-15T10:22:00.994Z,8.70
2023-05-15T10:26:12.520Z,10.55
2023-05-15T10:30:18.088Z,10.02
2023-05-15T10:34:21.490Z,11.95
2023-05-15T10:38:25.157Z,8.88
2023-05-15T10:42:30.823Z,12.30
2023-05-15T10:46:36.779Z,13.80
2023-05-15T10:50:40.225Z,12.90
2023-05-15T10:54:43.312Z,15.27
2023-05-15T10:58:49.371Z,10.23
2023-05-15T11:02:55.585Z,11.23
2023-05-15T11:07:15.780Z,11.52
2023-05-15T11:11:57.293Z,14.73
2023-05-15T11:16:02.844Z,12.45
2023-05-15T11:20:09.381Z,9.45
2023-05-15T11:24:13.561Z,11.60
2023-05-15T11:28:25.747Z,11.73
2023-05-15T11:32:49.493Z,10.15
2023-05-15T11:36:52.408Z,9.32
2023-05-15T11:40:57.167Z,8.27
2023-05-15T11:45:00.804Z,9.10
2023-05-15T11:49:05.434Z,8.32
2023-05-15T11:53:09.280Z,9.32
2023-05-15T11:57:12.304Z,7.97
2023-05-15T12:01:17.981Z,10.52
2023-05-15T12:05:22.947Z,13.18
2023-05-15T12:09:27.812Z,12.00
2023-05-15T12:13:31.768Z,9.27
2023-05-15T12:17:34.838Z,8.77
2023-05-15T12:21:43.401Z,9.20
2023-05-15T12:25:47.664Z,11.65
2023-05-15T12:29:53.048Z,10.80
2023-05-15T12:34:00.509Z,9.60
2023-05-15T12:38:06.603Z,9.07
2023-05-15T12:42:10.507Z,10.48
2023-05-15T12:46:15.776Z,8.77
2023-05-15T12:50:20.596Z,8.38
2023-05-15T12:54:26.450Z,11.93
2023-05-15T12:58:30.098Z,9.00
2023-05-15T13:02:33.480Z,8.40
2023-05-15T13:06:45.737Z,9.07
2023-05-15T13:10:59.156Z,8.25
2023-05-15T13:15:05.297Z,8.10
2023-05-15T13:19:09.960Z,8.45
2023-05-15T13:23:15.266Z,9.45
2023-05-15T13:27:19.673Z,11.00
2023-05-15T13:31:23.759Z,10.90
2023-05-15T13:35:27.104Z,9.70
2023-05-15T13:39:30.131Z,9.40
2023-05-15T13:43:34.754Z,13.00
2023-05-15T13:47:39.663Z,16.13
2023-05-15T13:51:42.734Z,9.88
2023-05-15T13:55:46.374Z,12.05
2023-05-15T13:59:50.846Z,9.93
2023-05-15T14:03:54.289Z,9.25
2023-05-15T14:07:58.145Z,9.48
2023-05-15T14:12:01.057Z,9.52
2023-05-15T14:16:08.534Z,8.93
2023-05-15T14:20:12.880Z,9.32
2023-05-15T14:24:15.763Z,10.52
2023-05-15T14:28:18.825Z,8.98
2023-05-15T14:32:23.096Z,9.77
2023-05-15T14:36:26.339Z,9.02
2023-05-15T14:40:29.429Z,9.13
2023-05-15T14:44:32.316Z,8.65
2023-05-15T14:48:36.638Z,8.20
2023-05-15T14:52:39.316Z,8.57
2023-05-15T14:56:42.133Z,8.38
2023-05-15T15:00:44.996Z,7.95
2023-05-15T15:04:49.062Z,9.73
2023-05-15T15:08:52.146Z,6.88
2023-05-15T15:12:55.746Z,7.65
2023-05-15T15:16:58.666Z,8.65
2023-05-15T15:21:05.943Z,7.35
2023-05-15T15:25:13.293Z,8.80
2023-05-15T15:29:16.476Z,6.72
2023-05-15T15:33:19.148Z,8.10
2023-05-15T15:37:23.420Z,6.35
2023-05-15T15:41:26.102Z,7.45
2023-05-15T15:45:29.254Z,7.32
2023-05-15T15:49:32.975Z,7.90
2023-05-15T15:53:37.471Z,8.32
2023-05-15T15:57:40.599Z,7.53
2023-05-15T16:01:43.793Z,7.25
2023-05-15T16:05:46.633Z,6.68
2023-05-15T16:10:03.718Z,7.55
2023-05-15T16:14:14.196Z,7.55
2023-05-15T16:18:18.061Z,9.10
2023-05-15T16:22:21.536Z,8.38
2023-05-15T16:26:26.116Z,8.27
2023-05-15T16:30:44.330Z,8.15
2023-05-15T16:34:51.874Z,7.50
2023-05-15T16:38:55.292Z,8.30
2023-05-15T16:42:59.651Z,8.60
2023-05-15T16:47:02.941Z,8.35
2023-05-15T16:51:14.913Z,8.70
2023-05-15T16:55:19.614Z,8.77
2023-05-15T16:59:23.985Z,8.85
2023-05-15T17:03:27.423Z,8.38
2023-05-15T17:07:31.594Z,9.40
2023-05-15T17:11:35.688Z,10.60
2023-05-15T17:15:40.201Z,9.60
2023-05-15T17:19:43.077Z,9.65
2023-05-15T17:23:46.000Z,11.15
2023-05-15T17:27:49.055Z,10.35
2023-05-15T17:31:53.968Z,10.77
2023-05-15T17:35:57.109Z,9.32
2023-05-15T17:40:00.262Z,11.30
2023-05-15T17:44:03.614Z,10.32
2023-05-15T17:48:08.548Z,10.77
2023-05-15T17:52:11.273Z,11.32
2023-05-15T17:56:13.929Z,11.18
2023-05-15T18:00:18.006Z,11.68
2023-05-15T18:04:22.254Z,12.23
2023-05-15T18:08:25.498Z,11.27
2023-05-15T18:12:28.520Z,11.50
2023-05-15T18:16:32.995Z,11.60
2023-05-15T18:20:37.512Z,11.35
2023-05-15T18:24:42.430Z,10.40
2023-05-15T18:28:45.454Z,9.48
2023-05-15T18:32:48.629Z,6.75
2023-05-15T18:36:52.885Z,7.10
2023-05-15T18:40:56.215Z,5.10
2023-05-15T18:45:00.337Z,4.38
2023-05-15T18:49:03.493Z,4.10
2023-05-15T18:53:07.772Z,4.03
2023-05-15T18:57:10.547Z,4.13
2023-05-15T19:01:13.465Z,3.30
2023-05-15T19:05:16.345Z,3.08
2023-05-15T19:09:20.733Z,3.35
2023-05-15T19:13:23.654Z,3.25
2023-05-15T19:17:26.805Z,3.40
2023-05-15T19:21:29.886Z,3.50
2023-05-15T19:25:33.960Z,4.47
2023-05-15T19:29:37.172Z,4.35
2023-05-15T19:33:40.250Z,5.30
2023-05-15T19:37:44.019Z,4.25
2023-05-15T19:41:48.762Z,4.68
2023-05-15T19:45:52.036Z,4.25
2023-05-15T19:49:55.135Z,5.28
2023-05-15T19:53:59.506Z,6.30
2023-05-15T19:58:04.034Z,5.43
2023-05-15T20:02:10.534Z,4.32
2023-05-15T20:06:13.543Z,5.10
2023-05-15T20:10:18.745Z,4.85
2023-05-15T20:14:22.863Z,5.75
2023-05-15T20:18:26.605Z,6.20
2023-05-15T20:22:29.439Z,5.78
2023-05-15T20:26:35.267Z,5.00
2023-05-15T20:30:39.751Z,5.88
2023-05-15T20:34:46.955Z,5.28
2023-05-15T20:38:52.074Z,5.72
2023-05-15T20:42:55.177Z,5.80
2023-05-15T20:46:59.709Z,5.63
2023-05-15T20:51:03.450Z,5.43
2023-05-15T20:55:13.687Z,5.22
2023-05-15T20:59:16.587Z,5.43
2023-05-15T21:07:24.051Z,5.50
2023-05-15T21:11:27.265Z,6.35
2023-05-15T21:15:30.075Z,6.47
2023-05-15T21:19:35.342Z,6.15
2023-05-15T21:23:38.121Z,5.70
2023-05-15T21:27:42.294Z,6.18
2023-05-15T21:31:45.559Z,6.78
2023-05-15T21:35:49.955Z,6.45
2023-05-15T21:39:53.164Z,5.78
2023-05-15T21:43:55.793Z,6.13
2023-05-15T21:47:58.902Z,5.80
2023-05-15T21:52:03.168Z,5.85
2023-05-15T21:56:07.113Z,5.40
2023-05-15T22:00:11.489Z,5.95
2023-05-15T22:04:15.651Z,5.45
2023-05-15T22:08:20.127Z,5.82
2023-05-15T22:12:23.125Z,4.75
2023-05-15T22:20:29.289Z,5.50
2023-05-15T22:24:34.157Z,6.00
2023-05-15T22:28:37.266Z,5.75
2023-05-15T22:36:47.371Z,4.93
2023-05-15T22:44:57.808Z,6.00
2023-05-15T22:49:00.966Z,5.93
2023-05-15T22:53:04.211Z,5.07
2023-05-15T22:57:08.939Z,5.93
2023-05-15T23:01:12.192Z,5.95
2023-05-15T23:05:15.458Z,5.10
2023-05-15T23:09:18.390Z,5.93
2023-05-15T23:13:22.834Z,5.90
2023-05-15T23:17:26.667Z,5.65
2023-05-15T23:21:30.052Z,6.07
2023-05-15T23:25:32.896Z,6.05
2023-05-15T23:29:37.550Z,6.55
2023-05-15T23:33:40.398Z,6.13
2023-05-15T23:37:43.466Z,5.70
2023-05-15T23:41:46.811Z,6.63
2023-05-15T23:45:51.490Z,6.65
2023-05-15T23:49:55.475Z,7.18
2023-05-15T23:54:00.207Z,6.18
2023-05-15T23:58:03.699Z,6.05
